sensor_id;sensor_type;location;lat;lon;timestamp;P1;durP1;ratioP1;P2;durP2;ratioP2
34136;SDS011;20414;50.860;4.382;2022-12-31T00:00:55;2.13;;;1.90;;
34136;SDS011;20414;50.860;4.382;2022-12-31T00:03:21;3.13;;;2.00;;
34136;SDS011;20414;50.860;4.382;2022-12-31T00:05:47;4.38;;;2.30;;
34136;SDS011;20414;50.860;4.382;2022-12-31T00:08:12;3.38;;;2.28;;
34136;SDS011;20414;50.860;4.382;2022-12-31T00:10:38;3.00;;;2.10;;
34136;SDS011;20414;50.860;4.382;2022-12-31T00:13:08;3.50;;;2.20;;
34136;SDS011;20414;50.860;4.382;2022-12-31T00:15:35;2.70;;;2.00;;
34136;SDS011;20414;50.860;4.382;2022-12-31T00:18:01;2.80;;;2.15;;
34136;SDS011;20414;50.860;4.382;2022-12-31T00:20:27;3.10;;;2.10;;
34136;SDS011;20414;50.860;4.382;2022-12-31T00:22:52;3.00;;;2.28;;
34136;SDS011;20414;50.860;4.382;2022-12-31T00:25:18;3.38;;;2.10;;
34136;SDS011;20414;50.860;4.382;2022-12-31T00:27:44;3.65;;;2.00;;
34136;SDS011;20414;50.860;4.382;2022-12-31T00:30:09;3.38;;;2.20;;
34136;SDS011;20414;50.860;4.382;2022-12-31T00:32:35;3.15;;;2.25;;
34136;SDS011;20414;50.860;4.382;2022-12-31T00:35:01;3.00;;;2.15;;
34136;SDS011;20414;50.860;4.382;2022-12-31T00:37:27;2.90;;;2.33;;
34136;SDS011;20414;50.860;4.382;2022-12-31T00:39:52;2.78;;;2.10;;
34136;SDS011;20414;50.860;4.382;2022-12-31T00:42:18;2.85;;;2.33;;
34136;SDS011;20414;50.860;4.382;2022-12-31T00:48:05;2.97;;;2.10;;
34136;SDS011;20414;50.860;4.382;2022-12-31T00:50:31;3.53;;;2.40;;
34136;SDS011;20414;50.860;4.382;2022-12-31T00:52:57;2.70;;;1.90;;
34136;SDS011;20414;50.860;4.382;2022-12-31T00:55:22;2.67;;;2.00;;
34136;SDS011;20414;50.860;4.382;2022-12-31T00:57:48;3.00;;;2.25;;
34136;SDS011;20414;50.860;4.382;2022-12-31T01:00:14;2.97;;;2.15;;
34136;SDS011;20414;50.860;4.382;2022-12-31T01:02:40;2.35;;;1.80;;
34136;SDS011;20414;50.860;4.382;2022-12-31T01:05:05;3.00;;;1.90;;
34136;SDS011;20414;50.860;4.382;2022-12-31T01:07:32;2.50;;;1.88;;
34136;SDS011;20414;50.860;4.382;2022-12-31T01:09:57;2.90;;;1.73;;
34136;SDS011;20414;50.860;4.382;2022-12-31T01:12:23;2.35;;;1.85;;
34136;SDS011;20414;50.860;4.382;2022-12-31T01:14:49;1.92;;;1.70;;
34136;SDS011;20414;50.860;4.382;2022-12-31T01:17:15;3.53;;;1.98;;
34136;SDS011;20414;50.860;4.382;2022-12-31T01:19:41;2.35;;;1.83;;
34136;SDS011;20414;50.860;4.382;2022-12-31T01:22:07;2.58;;;1.67;;
34136;SDS011;20414;50.860;4.382;2022-12-31T01:24:33;2.50;;;1.83;;
34136;SDS011;20414;50.860;4.382;2022-12-31T01:26:58;2.80;;;2.25;;
34136;SDS011;20414;50.860;4.382;2022-12-31T01:29:24;2.38;;;1.63;;
34136;SDS011;20414;50.860;4.382;2022-12-31T01:31:49;2.30;;;1.60;;
34136;SDS011;20414;50.860;4.382;2022-12-31T01:34:15;2.90;;;1.80;;
34136;SDS011;20414;50.860;4.382;2022-12-31T01:36:41;2.30;;;1.60;;
34136;SDS011;20414;50.860;4.382;2022-12-31T01:39:07;2.47;;;1.67;;
34136;SDS011;20414;50.860;4.382;2022-12-31T01:41:36;2.17;;;1.77;;
34136;SDS011;20414;50.860;4.382;2022-12-31T01:46:37;2.30;;;1.70;;
34136;SDS011;20414;50.860;4.382;2022-12-31T01:51:50;2.28;;;1.48;;
34136;SDS011;20414;50.860;4.382;2022-12-31T01:54:38;1.90;;;1.60;;
34136;SDS011;20414;50.860;4.382;2022-12-31T01:57:09;2.67;;;1.65;;
34136;SDS011;20414;50.860;4.382;2022-12-31T01:59:35;2.63;;;1.77;;
34136;SDS011;20414;50.860;4.382;2022-12-31T02:02:01;1.88;;;1.40;;
34136;SDS011;20414;50.860;4.382;2022-12-31T02:04:28;1.83;;;1.33;;
34136;SDS011;20414;50.860;4.382;2022-12-31T02:06:55;2.00;;;1.40;;
34136;SDS011;20414;50.860;4.382;2022-12-31T02:09:23;1.60;;;1.40;;
34136;SDS011;20414;50.860;4.382;2022-12-31T02:11:49;2.03;;;1.40;;
34136;SDS011;20414;50.860;4.382;2022-12-31T02:14:18;2.17;;;1.60;;
34136;SDS011;20414;50.860;4.382;2022-12-31T02:30:17;2.00;;;1.38;;
34136;SDS011;20414;50.860;4.382;2022-12-31T02:32:50;2.80;;;1.45;;
34136;SDS011;20414;50.860;4.382;2022-12-31T02:35:21;2.03;;;1.42;;
34136;SDS011;20414;50.860;4.382;2022-12-31T02:37:59;1.40;;;1.10;;
34136;SDS011;20414;50.860;4.382;2022-12-31T02:40:44;1.70;;;1.30;;
34136;SDS011;20414;50.860;4.382;2022-12-31T02:43:11;1.80;;;1.40;;
34136;SDS011;20414;50.860;4.382;2022-12-31T02:45:37;2.33;;;1.30;;
34136;SDS011;20414;50.860;4.382;2022-12-31T02:48:09;2.15;;;1.30;;
34136;SDS011;20414;50.860;4.382;2022-12-31T02:53:43;1.40;;;1.20;;
34136;SDS011;20414;50.860;4.382;2022-12-31T03:02:07;1.50;;;1.10;;
34136;SDS011;20414;50.860;4.382;2022-12-31T03:04:41;1.50;;;1.30;;
34136;SDS011;20414;50.860;4.382;2022-12-31T03:07:22;1.80;;;1.30;;
34136;SDS011;20414;50.860;4.382;2022-12-31T03:09:50;2.55;;;1.45;;
34136;SDS011;20414;50.860;4.382;2022-12-31T03:12:16;1.23;;;1.00;;
34136;SDS011;20414;50.860;4.382;2022-12-31T03:15:24;1.73;;;1.30;;
34136;SDS011;20414;50.860;4.382;2022-12-31T03:23:36;1.38;;;1.10;;
34136;SDS011;20414;50.860;4.382;2022-12-31T03:26:03;1.55;;;1.20;;
34136;SDS011;20414;50.860;4.382;2022-12-31T03:28:36;1.38;;;1.02;;
34136;SDS011;20414;50.860;4.382;2022-12-31T03:31:03;1.42;;;1.10;;
34136;SDS011;20414;50.860;4.382;2022-12-31T03:33:31;1.55;;;1.00;;
34136;SDS011;20414;50.860;4.382;2022-12-31T03:36:01;1.33;;;1.00;;
34136;SDS011;20414;50.860;4.382;2022-12-31T03:38:29;1.45;;;1.05;;
34136;SDS011;20414;50.860;4.382;2022-12-31T03:40:54;1.33;;;1.00;;
34136;SDS011;20414;50.860;4.382;2022-12-31T03:43:20;1.25;;;0.90;;
34136;SDS011;20414;50.860;4.382;2022-12-31T03:45:49;1.30;;;1.00;;
34136;SDS011;20414;50.860;4.382;2022-12-31T03:48:17;1.48;;;1.17;;
34136;SDS011;20414;50.860;4.382;2022-12-31T03:50:43;1.35;;;1.13;;
34136;SDS011;20414;50.860;4.382;2022-12-31T03:53:08;1.58;;;0.98;;
34136;SDS011;20414;50.860;4.382;2022-12-31T03:55:35;1.45;;;1.15;;
34136;SDS011;20414;50.860;4.382;2022-12-31T03:58:00;1.67;;;1.27;;
34136;SDS011;20414;50.860;4.382;2022-12-31T04:00:26;1.55;;;1.10;;
34136;SDS011;20414;50.860;4.382;2022-12-31T04:02:52;1.48;;;0.93;;
34136;SDS011;20414;50.860;4.382;2022-12-31T04:05:18;1.88;;;1.20;;
34136;SDS011;20414;50.860;4.382;2022-12-31T04:07:45;1.40;;;0.93;;
34136;SDS011;20414;50.860;4.382;2022-12-31T04:10:11;1.38;;;1.00;;
34136;SDS011;20414;50.860;4.382;2022-12-31T04:12:39;0.80;;;0.77;;
34136;SDS011;20414;50.860;4.382;2022-12-31T04:15:05;1.00;;;0.82;;
34136;SDS011;20414;50.860;4.382;2022-12-31T04:17:32;1.38;;;0.90;;
34136;SDS011;20414;50.860;4.382;2022-12-31T04:19:57;1.60;;;0.90;;
34136;SDS011;20414;50.860;4.382;2022-12-31T04:22:23;0.82;;;0.75;;
34136;SDS011;20414;50.860;4.382;2022-12-31T04:24:49;0.90;;;0.80;;
34136;SDS011;20414;50.860;4.382;2022-12-31T04:27:14;1.33;;;1.02;;
34136;SDS011;20414;50.860;4.382;2022-12-31T04:29:40;1.05;;;0.80;;
34136;SDS011;20414;50.860;4.382;2022-12-31T04:32:06;1.50;;;0.93;;
34136;SDS011;20414;50.860;4.382;2022-12-31T04:34:33;1.20;;;0.90;;
34136;SDS011;20414;50.860;4.382;2022-12-31T04:36:59;0.98;;;0.80;;
34136;SDS011;20414;50.860;4.382;2022-12-31T04:39:25;1.00;;;0.80;;
34136;SDS011;20414;50.860;4.382;2022-12-31T04:41:51;1.40;;;1.00;;
34136;SDS011;20414;50.860;4.382;2022-12-31T04:44:16;1.55;;;0.88;;
34136;SDS011;20414;50.860;4.382;2022-12-31T04:46:43;2.80;;;0.75;;
34136;SDS011;20414;50.860;4.382;2022-12-31T04:49:08;0.82;;;0.70;;
34136;SDS011;20414;50.860;4.382;2022-12-31T04:51:34;1.17;;;0.80;;
34136;SDS011;20414;50.860;4.382;2022-12-31T04:54:00;1.13;;;0.90;;
34136;SDS011;20414;50.860;4.382;2022-12-31T04:56:26;0.82;;;0.70;;
34136;SDS011;20414;50.860;4.382;2022-12-31T04:58:52;1.30;;;0.73;;
34136;SDS011;20414;50.860;4.382;2022-12-31T05:01:18;1.17;;;0.90;;
34136;SDS011;20414;50.860;4.382;2022-12-31T05:03:44;1.75;;;0.90;;
34136;SDS011;20414;50.860;4.382;2022-12-31T05:06:14;1.38;;;0.85;;
34136;SDS011;20414;50.860;4.382;2022-12-31T05:08:41;0.95;;;0.82;;
34136;SDS011;20414;50.860;4.382;2022-12-31T05:11:08;0.80;;;0.70;;
34136;SDS011;20414;50.860;4.382;2022-12-31T05:13:34;1.02;;;0.68;;
34136;SDS011;20414;50.860;4.382;2022-12-31T05:16:00;1.17;;;0.70;;
34136;SDS011;20414;50.860;4.382;2022-12-31T05:18:26;0.73;;;0.65;;
34136;SDS011;20414;50.860;4.382;2022-12-31T05:20:53;1.23;;;0.70;;
34136;SDS011;20414;50.860;4.382;2022-12-31T05:23:19;0.90;;;0.70;;
34136;SDS011;20414;50.860;4.382;2022-12-31T05:25:45;0.90;;;0.73;;
34136;SDS011;20414;50.860;4.382;2022-12-31T05:28:12;0.95;;;0.68;;
34136;SDS011;20414;50.860;4.382;2022-12-31T05:30:38;1.02;;;0.75;;
34136;SDS011;20414;50.860;4.382;2022-12-31T05:33:04;1.00;;;0.75;;
34136;SDS011;20414;50.860;4.382;2022-12-31T05:35:30;0.82;;;0.80;;
34136;SDS011;20414;50.860;4.382;2022-12-31T05:37:55;0.93;;;0.80;;
34136;SDS011;20414;50.860;4.382;2022-12-31T05:40:21;1.00;;;0.80;;
34136;SDS011;20414;50.860;4.382;2022-12-31T05:42:48;1.13;;;0.80;;
34136;SDS011;20414;50.860;4.382;2022-12-31T05:45:14;0.75;;;0.60;;
34136;SDS011;20414;50.860;4.382;2022-12-31T05:47:40;0.80;;;0.70;;
34136;SDS011;20414;50.860;4.382;2022-12-31T05:50:07;0.98;;;0.63;;
34136;SDS011;20414;50.860;4.382;2022-12-31T05:52:34;0.82;;;0.57;;
34136;SDS011;20414;50.860;4.382;2022-12-31T05:55:00;0.90;;;0.75;;
34136;SDS011;20414;50.860;4.382;2022-12-31T05:57:25;0.90;;;0.60;;
34136;SDS011;20414;50.860;4.382;2022-12-31T05:59:51;1.20;;;0.80;;
34136;SDS011;20414;50.860;4.382;2022-12-31T06:02:18;1.33;;;0.80;;
34136;SDS011;20414;50.860;4.382;2022-12-31T06:04:44;1.25;;;0.60;;
34136;SDS011;20414;50.860;4.382;2022-12-31T06:07:10;0.85;;;0.60;;
34136;SDS011;20414;50.860;4.382;2022-12-31T06:09:35;0.82;;;0.60;;
34136;SDS011;20414;50.860;4.382;2022-12-31T06:12:02;0.85;;;0.60;;
34136;SDS011;20414;50.860;4.382;2022-12-31T06:14:28;0.88;;;0.60;;
34136;SDS011;20414;50.860;4.382;2022-12-31T06:16:53;0.80;;;0.70;;
34136;SDS011;20414;50.860;4.382;2022-12-31T06:19:19;1.05;;;0.73;;
34136;SDS011;20414;50.860;4.382;2022-12-31T06:21:44;0.60;;;0.43;;
34136;SDS011;20414;50.860;4.382;2022-12-31T06:24:10;0.77;;;0.73;;
34136;SDS011;20414;50.860;4.382;2022-12-31T06:26:36;0.70;;;0.52;;
34136;SDS011;20414;50.860;4.382;2022-12-31T06:29:01;0.65;;;0.57;;
34136;SDS011;20414;50.860;4.382;2022-12-31T06:31:27;0.57;;;0.50;;
34136;SDS011;20414;50.860;4.382;2022-12-31T06:33:53;0.68;;;0.57;;
34136;SDS011;20414;50.860;4.382;2022-12-31T06:36:19;0.80;;;0.60;;
34136;SDS011;20414;50.860;4.382;2022-12-31T06:38:45;0.60;;;0.60;;
34136;SDS011;20414;50.860;4.382;2022-12-31T06:41:12;0.75;;;0.50;;
34136;SDS011;20414;50.860;4.382;2022-12-31T06:43:40;0.60;;;0.50;;
34136;SDS011;20414;50.860;4.382;2022-12-31T06:46:07;0.93;;;0.52;;
34136;SDS011;20414;50.860;4.382;2022-12-31T06:48:34;0.95;;;0.60;;
34136;SDS011;20414;50.860;4.382;2022-12-31T06:51:04;0.63;;;0.50;;
34136;SDS011;20414;50.860;4.382;2022-12-31T06:53:31;0.90;;;0.70;;
34136;SDS011;20414;50.860;4.382;2022-12-31T06:55:57;0.52;;;0.50;;
34136;SDS011;20414;50.860;4.382;2022-12-31T06:58:28;0.68;;;0.60;;
34136;SDS011;20414;50.860;4.382;2022-12-31T07:01:00;0.52;;;0.50;;
34136;SDS011;20414;50.860;4.382;2022-12-31T07:03:42;0.50;;;0.50;;
34136;SDS011;20414;50.860;4.382;2022-12-31T07:06:25;0.77;;;0.60;;
34136;SDS011;20414;50.860;4.382;2022-12-31T07:09:07;0.50;;;0.50;;
34136;SDS011;20414;50.860;4.382;2022-12-31T07:11:53;0.57;;;0.50;;
34136;SDS011;20414;50.860;4.382;2022-12-31T07:14:27;0.60;;;0.50;;
34136;SDS011;20414;50.860;4.382;2022-12-31T07:17:20;0.68;;;0.50;;
34136;SDS011;20414;50.860;4.382;2022-12-31T07:20:07;0.45;;;0.45;;
34136;SDS011;20414;50.860;4.382;2022-12-31T07:22:35;0.60;;;0.50;;
34136;SDS011;20414;50.860;4.382;2022-12-31T07:25:01;0.63;;;0.50;;
34136;SDS011;20414;50.860;4.382;2022-12-31T07:27:41;0.60;;;0.40;;
34136;SDS011;20414;50.860;4.382;2022-12-31T07:30:18;0.70;;;0.57;;
34136;SDS011;20414;50.860;4.382;2022-12-31T07:38:13;0.95;;;0.55;;
34136;SDS011;20414;50.860;4.382;2022-12-31T07:49:03;0.70;;;0.60;;
34136;SDS011;20414;50.860;4.382;2022-12-31T07:51:30;1.13;;;0.57;;
34136;SDS011;20414;50.860;4.382;2022-12-31T07:53:55;0.43;;;0.40;;
34136;SDS011;20414;50.860;4.382;2022-12-31T07:56:21;0.95;;;0.60;;
34136;SDS011;20414;50.860;4.382;2022-12-31T08:01:21;0.70;;;0.50;;
34136;SDS011;20414;50.860;4.382;2022-12-31T08:06:39;0.40;;;0.40;;
34136;SDS011;20414;50.860;4.382;2022-12-31T08:09:23;0.40;;;0.40;;
34136;SDS011;20414;50.860;4.382;2022-12-31T08:12:03;0.68;;;0.45;;
34136;SDS011;20414;50.860;4.382;2022-12-31T08:14:29;0.70;;;0.50;;
34136;SDS011;20414;50.860;4.382;2022-12-31T08:16:56;0.60;;;0.30;;
34136;SDS011;20414;50.860;4.382;2022-12-31T08:19:23;0.60;;;0.50;;
34136;SDS011;20414;50.860;4.382;2022-12-31T08:30:05;0.63;;;0.50;;
34136;SDS011;20414;50.860;4.382;2022-12-31T08:32:52;0.82;;;0.40;;
34136;SDS011;20414;50.860;4.382;2022-12-31T08:46:28;0.32;;;0.30;;
34136;SDS011;20414;50.860;4.382;2022-12-31T08:48:58;0.43;;;0.40;;
34136;SDS011;20414;50.860;4.382;2022-12-31T08:51:24;0.30;;;0.30;;
34136;SDS011;20414;50.860;4.382;2022-12-31T08:53:51;0.68;;;0.35;;
34136;SDS011;20414;50.860;4.382;2022-12-31T09:07:30;0.45;;;0.30;;
34136;SDS011;20414;50.860;4.382;2022-12-31T09:13:01;0.40;;;0.40;;
34136;SDS011;20414;50.860;4.382;2022-12-31T09:18:16;0.50;;;0.30;;
34136;SDS011;20414;50.860;4.382;2022-12-31T09:20:42;0.40;;;0.30;;
34136;SDS011;20414;50.860;4.382;2022-12-31T09:23:08;0.40;;;0.40;;
34136;SDS011;20414;50.860;4.382;2022-12-31T09:25:37;0.30;;;0.30;;
34136;SDS011;20414;50.860;4.382;2022-12-31T09:33:47;0.35;;;0.35;;
34136;SDS011;20414;50.860;4.382;2022-12-31T09:36:18;0.77;;;0.60;;
34136;SDS011;20414;50.860;4.382;2022-12-31T09:39:15;0.35;;;0.30;;
34136;SDS011;20414;50.860;4.382;2022-12-31T09:50:34;0.30;;;0.20;;
34136;SDS011;20414;50.860;4.382;2022-12-31T09:53:43;0.50;;;0.40;;
34136;SDS011;20414;50.860;4.382;2022-12-31T09:56:28;0.50;;;0.30;;
34136;SDS011;20414;50.860;4.382;2022-12-31T09:59:12;0.57;;;0.40;;
34136;SDS011;20414;50.860;4.382;2022-12-31T10:01:49;1.02;;;0.45;;
34136;SDS011;20414;50.860;4.382;2022-12-31T10:04:28;0.63;;;0.40;;
34136;SDS011;20414;50.860;4.382;2022-12-31T10:18:10;0.63;;;0.40;;
34136;SDS011;20414;50.860;4.382;2022-12-31T10:32:16;0.60;;;0.28;;
34136;SDS011;20414;50.860;4.382;2022-12-31T10:34:51;0.57;;;0.40;;
34136;SDS011;20414;50.860;4.382;2022-12-31T10:40:23;1.13;;;0.40;;
34136;SDS011;20414;50.860;4.382;2022-12-31T10:46:22;1.02;;;0.43;;
34136;SDS011;20414;50.860;4.382;2022-12-31T10:49:10;0.30;;;0.30;;
34136;SDS011;20414;50.860;4.382;2022-12-31T11:17:55;0.47;;;0.30;;
34136;SDS011;20414;50.860;4.382;2022-12-31T11:23:48;0.30;;;0.30;;
34136;SDS011;20414;50.860;4.382;2022-12-31T11:32:08;0.52;;;0.28;;
34136;SDS011;20414;50.860;4.382;2022-12-31T11:34:55;0.28;;;0.20;;
34136;SDS011;20414;50.860;4.382;2022-12-31T11:37:36;0.30;;;0.30;;
34136;SDS011;20414;50.860;4.382;2022-12-31T11:51:05;0.38;;;0.30;;
34136;SDS011;20414;50.860;4.382;2022-12-31T11:53:57;0.55;;;0.30;;
34136;SDS011;20414;50.860;4.382;2022-12-31T11:56:53;0.40;;;0.30;;
34136;SDS011;20414;50.860;4.382;2022-12-31T11:59:37;0.75;;;0.30;;
34136;SDS011;20414;50.860;4.382;2022-12-31T12:02:09;0.22;;;0.20;;
34136;SDS011;20414;50.860;4.382;2022-12-31T12:04:59;0.40;;;0.40;;
34136;SDS011;20414;50.860;4.382;2022-12-31T12:07:27;0.50;;;0.28;;
34136;SDS011;20414;50.860;4.382;2022-12-31T12:09:55;0.20;;;0.20;;
34136;SDS011;20414;50.860;4.382;2022-12-31T12:12:22;0.80;;;0.28;;
34136;SDS011;20414;50.860;4.382;2022-12-31T12:14:50;0.47;;;0.32;;
34136;SDS011;20414;50.860;4.382;2022-12-31T12:17:27;0.52;;;0.30;;
34136;SDS011;20414;50.860;4.382;2022-12-31T12:19:59;0.43;;;0.20;;
34136;SDS011;20414;50.860;4.382;2022-12-31T12:22:27;0.60;;;0.30;;
34136;SDS011;20414;50.860;4.382;2022-12-31T12:24:54;0.30;;;0.30;;
34136;SDS011;20414;50.860;4.382;2022-12-31T12:27:21;0.50;;;0.30;;
34136;SDS011;20414;50.860;4.382;2022-12-31T12:29:48;1.48;;;0.30;;
34136;SDS011;20414;50.860;4.382;2022-12-31T12:34:48;0.20;;;0.20;;
34136;SDS011;20414;50.860;4.382;2022-12-31T12:40:02;0.47;;;0.30;;
34136;SDS011;20414;50.860;4.382;2022-12-31T12:42:45;0.65;;;0.40;;
34136;SDS011;20414;50.860;4.382;2022-12-31T12:45:14;0.68;;;0.30;;
34136;SDS011;20414;50.860;4.382;2022-12-31T12:47:45;0.50;;;0.38;;
34136;SDS011;20414;50.860;4.382;2022-12-31T12:50:14;0.40;;;0.30;;
34136;SDS011;20414;50.860;4.382;2022-12-31T12:55:20;0.43;;;0.28;;
34136;SDS011;20414;50.860;4.382;2022-12-31T13:00:37;1.60;;;0.30;;
34136;SDS011;20414;50.860;4.382;2022-12-31T13:03:37;0.30;;;0.20;;
34136;SDS011;20414;50.860;4.382;2022-12-31T13:06:21;0.20;;;0.20;;
34136;SDS011;20414;50.860;4.382;2022-12-31T13:09:17;0.38;;;0.28;;
34136;SDS011;20414;50.860;4.382;2022-12-31T13:12:03;0.25;;;0.20;;
34136;SDS011;20414;50.860;4.382;2022-12-31T13:22:58;1.13;;;0.30;;
34136;SDS011;20414;50.860;4.382;2022-12-31T13:28:26;0.38;;;0.20;;
34136;SDS011;20414;50.860;4.382;2022-12-31T13:30:56;0.47;;;0.30;;
34136;SDS011;20414;50.860;4.382;2022-12-31T13:33:27;0.40;;;0.20;;
34136;SDS011;20414;50.860;4.382;2022-12-31T13:35:59;0.40;;;0.30;;
34136;SDS011;20414;50.860;4.382;2022-12-31T13:38:32;0.38;;;0.25;;
34136;SDS011;20414;50.860;4.382;2022-12-31T13:41:08;0.45;;;0.30;;
34136;SDS011;20414;50.860;4.382;2022-12-31T13:43:59;1.38;;;0.22;;
34136;SDS011;20414;50.860;4.382;2022-12-31T13:49:18;0.43;;;0.20;;
34136;SDS011;20414;50.860;4.382;2022-12-31T13:51:50;0.38;;;0.20;;
34136;SDS011;20414;50.860;4.382;2022-12-31T13:57:33;0.68;;;0.30;;
34136;SDS011;20414;50.860;4.382;2022-12-31T14:00:16;0.30;;;0.20;;
34136;SDS011;20414;50.860;4.382;2022-12-31T14:02:51;1.35;;;0.20;;
34136;SDS011;20414;50.860;4.382;2022-12-31T14:05:36;1.13;;;0.35;;
34136;SDS011;20414;50.860;4.382;2022-12-31T14:08:07;0.40;;;0.30;;
34136;SDS011;20414;50.860;4.382;2022-12-31T14:13:28;0.25;;;0.20;;
34136;SDS011;20414;50.860;4.382;2022-12-31T14:18:34;0.40;;;0.30;;
34136;SDS011;20414;50.860;4.382;2022-12-31T14:21:47;0.70;;;0.30;;
34136;SDS011;20414;50.860;4.382;2022-12-31T14:27:22;0.47;;;0.30;;
34136;SDS011;20414;50.860;4.382;2022-12-31T14:33:04;0.70;;;0.30;;
34136;SDS011;20414;50.860;4.382;2022-12-31T14:35:31;0.22;;;0.20;;
34136;SDS011;20414;50.860;4.382;2022-12-31T14:51:28;0.52;;;0.20;;
34136;SDS011;20414;50.860;4.382;2022-12-31T14:53:55;0.30;;;0.20;;
34136;SDS011;20414;50.860;4.382;2022-12-31T14:56:41;0.20;;;0.20;;
34136;SDS011;20414;50.860;4.382;2022-12-31T15:02:22;0.57;;;0.30;;
34136;SDS011;20414;50.860;4.382;2022-12-31T15:22:41;0.35;;;0.20;;
34136;SDS011;20414;50.860;4.382;2022-12-31T15:27:55;0.20;;;0.20;;
34136;SDS011;20414;50.860;4.382;2022-12-31T15:38:32;0.25;;;0.20;;
34136;SDS011;20414;50.860;4.382;2022-12-31T15:46:25;0.52;;;0.28;;
34136;SDS011;20414;50.860;4.382;2022-12-31T15:49:02;0.63;;;0.20;;
34136;SDS011;20414;50.860;4.382;2022-12-31T15:51:45;0.60;;;0.28;;
34136;SDS011;20414;50.860;4.382;2022-12-31T15:54:22;0.40;;;0.30;;
34136;SDS011;20414;50.860;4.382;2022-12-31T15:56:58;0.32;;;0.30;;
34136;SDS011;20414;50.860;4.382;2022-12-31T15:59:25;0.30;;;0.30;;
34136;SDS011;20414;50.860;4.382;2022-12-31T16:01:53;0.25;;;0.20;;
34136;SDS011;20414;50.860;4.382;2022-12-31T16:04:22;0.22;;;0.20;;
34136;SDS011;20414;50.860;4.382;2022-12-31T16:06:50;0.43;;;0.30;;
34136;SDS011;20414;50.860;4.382;2022-12-31T16:09:20;0.30;;;0.20;;
34136;SDS011;20414;50.860;4.382;2022-12-31T16:11:48;0.60;;;0.20;;
34136;SDS011;20414;50.860;4.382;2022-12-31T16:14:19;0.30;;;0.20;;
34136;SDS011;20414;50.860;4.382;2022-12-31T16:16:52;0.50;;;0.40;;
34136;SDS011;20414;50.860;4.382;2022-12-31T16:19:27;0.30;;;0.30;;
34136;SDS011;20414;50.860;4.382;2022-12-31T16:22:01;0.28;;;0.20;;
34136;SDS011;20414;50.860;4.382;2022-12-31T16:24:38;0.73;;;0.30;;
34136;SDS011;20414;50.860;4.382;2022-12-31T16:27:05;0.68;;;0.30;;
34136;SDS011;20414;50.860;4.382;2022-12-31T16:29:45;0.38;;;0.30;;
34136;SDS011;20414;50.860;4.382;2022-12-31T16:32:14;0.30;;;0.20;;
34136;SDS011;20414;50.860;4.382;2022-12-31T16:34:41;0.30;;;0.30;;
34136;SDS011;20414;50.860;4.382;2022-12-31T16:37:14;0.45;;;0.22;;
34136;SDS011;20414;50.860;4.382;2022-12-31T16:40:26;0.50;;;0.30;;
34136;SDS011;20414;50.860;4.382;2022-12-31T16:42:46;0.22;;;0.20;;
34136;SDS011;20414;50.860;4.382;2022-12-31T16:45:27;0.30;;;0.30;;
34136;SDS011;20414;50.860;4.382;2022-12-31T16:47:59;0.77;;;0.40;;
34136;SDS011;20414;50.860;4.382;2022-12-31T16:50:34;0.30;;;0.20;;
34136;SDS011;20414;50.860;4.382;2022-12-31T16:53:04;0.25;;;0.25;;
34136;SDS011;20414;50.860;4.382;2022-12-31T16:55:32;0.55;;;0.30;;
34136;SDS011;20414;50.860;4.382;2022-12-31T16:58:18;0.20;;;0.20;;
34136;SDS011;20414;50.860;4.382;2022-12-31T17:00:52;0.35;;;0.30;;
34136;SDS011;20414;50.860;4.382;2022-12-31T17:03:21;0.40;;;0.30;;
34136;SDS011;20414;50.860;4.382;2022-12-31T17:06:12;0.30;;;0.28;;
34136;SDS011;20414;50.860;4.382;2022-12-31T17:11:33;0.35;;;0.30;;
34136;SDS011;20414;50.860;4.382;2022-12-31T17:16:34;0.20;;;0.20;;
34136;SDS011;20414;50.860;4.382;2022-12-31T17:19:02;0.43;;;0.30;;
34136;SDS011;20414;50.860;4.382;2022-12-31T17:21:29;0.40;;;0.30;;
34136;SDS011;20414;50.860;4.382;2022-12-31T17:23:58;1.92;;;0.40;;
34136;SDS011;20414;50.860;4.382;2022-12-31T17:26:27;0.40;;;0.30;;
34136;SDS011;20414;50.860;4.382;2022-12-31T17:28:55;0.82;;;0.32;;
34136;SDS011;20414;50.860;4.382;2022-12-31T17:31:27;0.60;;;0.40;;
34136;SDS011;20414;50.860;4.382;2022-12-31T17:34:15;0.90;;;0.40;;
34136;SDS011;20414;50.860;4.382;2022-12-31T17:39:31;0.60;;;0.30;;
34136;SDS011;20414;50.860;4.382;2022-12-31T17:42:11;0.30;;;0.30;;
34136;SDS011;20414;50.860;4.382;2022-12-31T17:44:38;2.17;;;0.30;;
34136;SDS011;20414;50.860;4.382;2022-12-31T17:47:07;1.33;;;0.30;;
34136;SDS011;20414;50.860;4.382;2022-12-31T17:49:37;0.60;;;0.30;;
34136;SDS011;20414;50.860;4.382;2022-12-31T17:52:08;0.70;;;0.40;;
34136;SDS011;20414;50.860;4.382;2022-12-31T17:54:37;0.52;;;0.40;;
34136;SDS011;20414;50.860;4.382;2022-12-31T17:57:03;0.65;;;0.35;;
34136;SDS011;20414;50.860;4.382;2022-12-31T17:59:29;0.52;;;0.40;;
34136;SDS011;20414;50.860;4.382;2022-12-31T18:01:57;1.23;;;0.30;;
34136;SDS011;20414;50.860;4.382;2022-12-31T18:04:25;0.70;;;0.30;;
34136;SDS011;20414;50.860;4.382;2022-12-31T18:06:51;0.45;;;0.38;;
34136;SDS011;20414;50.860;4.382;2022-12-31T18:09:17;0.57;;;0.40;;
34136;SDS011;20414;50.860;4.382;2022-12-31T18:11:43;0.40;;;0.30;;
34136;SDS011;20414;50.860;4.382;2022-12-31T18:14:12;0.57;;;0.40;;
34136;SDS011;20414;50.860;4.382;2022-12-31T18:16:39;0.97;;;0.40;;
34136;SDS011;20414;50.860;4.382;2022-12-31T18:19:04;1.20;;;0.35;;
34136;SDS011;20414;50.860;4.382;2022-12-31T18:21:36;1.55;;;0.40;;
34136;SDS011;20414;50.860;4.382;2022-12-31T18:24:02;1.60;;;0.43;;
34136;SDS011;20414;50.860;4.382;2022-12-31T18:26:29;0.32;;;0.30;;
34136;SDS011;20414;50.860;4.382;2022-12-31T18:28:57;0.88;;;0.32;;
34136;SDS011;20414;50.860;4.382;2022-12-31T18:31:28;1.20;;;0.52;;
34136;SDS011;20414;50.860;4.382;2022-12-31T18:33:55;0.65;;;0.38;;
34136;SDS011;20414;50.860;4.382;2022-12-31T18:36:22;0.68;;;0.35;;
34136;SDS011;20414;50.860;4.382;2022-12-31T18:38:53;0.82;;;0.30;;
34136;SDS011;20414;50.860;4.382;2022-12-31T18:41:23;0.30;;;0.30;;
34136;SDS011;20414;50.860;4.382;2022-12-31T18:43:51;0.82;;;0.50;;
34136;SDS011;20414;50.860;4.382;2022-12-31T18:46:19;1.58;;;0.40;;
34136;SDS011;20414;50.860;4.382;2022-12-31T18:48:47;1.20;;;0.33;;
34136;SDS011;20414;50.860;4.382;2022-12-31T18:51:14;3.33;;;0.75;;
34136;SDS011;20414;50.860;4.382;2022-12-31T18:53:47;0.70;;;0.50;;
34136;SDS011;20414;50.860;4.382;2022-12-31T18:56:17;2.38;;;0.45;;
34136;SDS011;20414;50.860;4.382;2022-12-31T18:58:44;0.82;;;0.45;;
34136;SDS011;20414;50.860;4.382;2022-12-31T19:03:45;1.00;;;0.52;;
34136;SDS011;20414;50.860;4.382;2022-12-31T19:06:11;0.65;;;0.40;;
34136;SDS011;20414;50.860;4.382;2022-12-31T19:08:36;0.82;;;0.40;;
34136;SDS011;20414;50.860;4.382;2022-12-31T19:11:02;0.80;;;0.50;;
34136;SDS011;20414;50.860;4.382;2022-12-31T19:13:28;0.65;;;0.40;;
34136;SDS011;20414;50.860;4.382;2022-12-31T19:15:53;0.47;;;0.38;;
34136;SDS011;20414;50.860;4.382;2022-12-31T19:18:19;0.63;;;0.40;;
34136;SDS011;20414;50.860;4.382;2022-12-31T19:20:45;1.15;;;0.50;;
34136;SDS011;20414;50.860;4.382;2022-12-31T19:23:15;0.50;;;0.30;;
34136;SDS011;20414;50.860;4.382;2022-12-31T19:25:43;0.70;;;0.52;;
34136;SDS011;20414;50.860;4.382;2022-12-31T19:28:19;0.50;;;0.40;;
34136;SDS011;20414;50.860;4.382;2022-12-31T19:30:49;1.00;;;0.47;;
34136;SDS011;20414;50.860;4.382;2022-12-31T19:33:15;1.33;;;0.50;;
34136;SDS011;20414;50.860;4.382;2022-12-31T19:35:42;1.30;;;0.52;;
34136;SDS011;20414;50.860;4.382;2022-12-31T19:38:26;0.57;;;0.40;;
34136;SDS011;20414;50.860;4.382;2022-12-31T19:40:56;1.27;;;0.40;;
34136;SDS011;20414;50.860;4.382;2022-12-31T19:43:23;0.95;;;0.50;;
34136;SDS011;20414;50.860;4.382;2022-12-31T19:45:49;0.63;;;0.43;;
34136;SDS011;20414;50.860;4.382;2022-12-31T19:48:19;0.70;;;0.50;;
34136;SDS011;20414;50.860;4.382;2022-12-31T19:50:47;1.17;;;0.50;;